RYR910G LFML-LOWW
Flight info
| Callsign | RYR910G |
|---|---|
| Flight time | 1h 38m |
| Altitude | 30000 |
| Route | ETREK DCT LUXAN DCT LTP DCT SOPLO DCT OMASI DCT KINNI/N0439F380 DCT SOSAL DCT KORED DCT BERSU DCT DITON DCT DEGES DCT GAMSA/N0444F390 DCT TULSI DCT INPUL DCT SI DCT NEMAL NEMAL2W |
| Aircraft | B738/M-SDE3FGILRWY/SB1 |
Departure
| Time | 2026-05-07 17:18 |
|---|---|
| Airport | Marseille Provence Airport (LFML) |
Arrival
| Time | 2026-05-07 18:56 |
|---|---|
| Airport | Vienna International Airport (LOWW) |
| Time | Latitude | Longitude | Altitude | Speed | Heading |
|---|---|---|---|---|---|
| 2026-05-07 16:46 | 43.44024 | 5.22118 | 41 ft | 0 kts | 61° |
| 2026-05-07 17:04 | 43.44021 | 5.22110 | 42 ft | 4 kts | 64° |
| 2026-05-07 17:05 | 43.44013 | 5.22076 | 40 ft | 4 kts | 84° |
| 2026-05-07 17:05 | 43.44013 | 5.22039 | 41 ft | 4 kts | 103° |
| 2026-05-07 17:05 | 43.44022 | 5.22005 | 39 ft | 4 kts | 118° |
| 2026-05-07 17:05 | 43.44036 | 5.21974 | 39 ft | 4 kts | 129° |
| 2026-05-07 17:06 | 43.44052 | 5.21948 | 36 ft | 2 kts | 134° |
| 2026-05-07 17:06 | 43.44053 | 5.21946 | 36 ft | 1 kts | 134° |
| 2026-05-07 17:09 | 43.44049 | 5.21953 | 38 ft | 2 kts | 134° |
| 2026-05-07 17:09 | 43.44036 | 5.21970 | 38 ft | 3 kts | 134° |
| 2026-05-07 17:09 | 43.44010 | 5.21979 | 40 ft | 5 kts | 184° |
| 2026-05-07 17:10 | 43.43975 | 5.21954 | 40 ft | 7 kts | 216° |
| 2026-05-07 17:10 | 43.43930 | 5.21899 | 41 ft | 10 kts | 224° |
| 2026-05-07 17:10 | 43.43908 | 5.21823 | 42 ft | 9 kts | 287° |
| 2026-05-07 17:10 | 43.43956 | 5.21736 | 41 ft | 14 kts | 311° |
| 2026-05-07 17:11 | 43.43951 | 5.21611 | 38 ft | 16 kts | 236° |
| 2026-05-07 17:11 | 43.43947 | 5.21452 | 28 ft | 20 kts | 309° |
| 2026-05-07 17:11 | 43.44015 | 5.21353 | 26 ft | 13 kts | 313° |
| 2026-05-07 17:11 | 43.44077 | 5.21263 | 26 ft | 13 kts | 314° |
| 2026-05-07 17:12 | 43.44137 | 5.21176 | 23 ft | 12 kts | 313° |
| 2026-05-07 17:12 | 43.44196 | 5.21090 | 21 ft | 12 kts | 313° |
| 2026-05-07 17:12 | 43.44257 | 5.20997 | 19 ft | 13 kts | 307° |
| 2026-05-07 17:12 | 43.44303 | 5.20890 | 19 ft | 13 kts | 300° |
| 2026-05-07 17:13 | 43.44358 | 5.20796 | 19 ft | 12 kts | 313° |
| 2026-05-07 17:13 | 43.44417 | 5.20711 | 18 ft | 12 kts | 314° |
| 2026-05-07 17:13 | 43.44474 | 5.20630 | 18 ft | 12 kts | 314° |
| 2026-05-07 17:13 | 43.44530 | 5.20549 | 17 ft | 12 kts | 314° |
| 2026-05-07 17:14 | 43.44585 | 5.20470 | 17 ft | 11 kts | 313° |
| 2026-05-07 17:14 | 43.44638 | 5.20393 | 17 ft | 11 kts | 314° |
| 2026-05-07 17:14 | 43.44690 | 5.20320 | 16 ft | 11 kts | 314° |
| 2026-05-07 17:14 | 43.44740 | 5.20248 | 15 ft | 10 kts | 314° |
| 2026-05-07 17:15 | 43.44789 | 5.20177 | 15 ft | 10 kts | 313° |
| 2026-05-07 17:15 | 43.44841 | 5.20101 | 14 ft | 12 kts | 313° |
| 2026-05-07 17:15 | 43.44901 | 5.20013 | 14 ft | 14 kts | 313° |
| 2026-05-07 17:15 | 43.44965 | 5.19917 | 14 ft | 13 kts | 306° |
| 2026-05-07 17:16 | 43.44974 | 5.19844 | 14 ft | 8 kts | 253° |
| 2026-05-07 17:16 | 43.44929 | 5.19778 | 14 ft | 12 kts | 221° |
| 2026-05-07 17:16 | 43.44864 | 5.19803 | 13 ft | 11 kts | 130° |
| 2026-05-07 17:16 | 43.44809 | 5.19883 | 13 ft | 12 kts | 134° |
| 2026-05-07 17:17 | 43.44744 | 5.19975 | 14 ft | 19 kts | 134° |
| 2026-05-07 17:17 | 43.44511 | 5.20307 | 21 ft | 82 kts | 134° |
| 2026-05-07 17:17 | 43.43967 | 5.21081 | 31 ft | 139 kts | 133° |
| 2026-05-07 17:17 | 43.43234 | 5.22111 | 339 ft | 158 kts | 139° |
| 2026-05-07 17:18 | 43.42441 | 5.23273 | 721 ft | 177 kts | 127° |
| 2026-05-07 17:18 | 43.41966 | 5.24908 | 1235 ft | 193 kts | 97° |
| 2026-05-07 17:18 | 43.42128 | 5.26721 | 1924 ft | 197 kts | 80° |
| 2026-05-07 17:18 | 43.42394 | 5.28699 | 2155 ft | 222 kts | 81° |
| 2026-05-07 17:19 | 43.42668 | 5.30797 | 2340 ft | 245 kts | 81° |
| 2026-05-07 17:19 | 43.42977 | 5.33150 | 2814 ft | 258 kts | 80° |
| 2026-05-07 17:19 | 43.43240 | 5.35622 | 3486 ft | 264 kts | 88° |
| 2026-05-07 17:19 | 43.43181 | 5.38149 | 4285 ft | 264 kts | 95° |
| 2026-05-07 17:20 | 43.43031 | 5.40657 | 5141 ft | 262 kts | 96° |
| 2026-05-07 17:20 | 43.42873 | 5.43173 | 5886 ft | 266 kts | 96° |
| 2026-05-07 17:20 | 43.42720 | 5.45726 | 6623 ft | 268 kts | 96° |
| 2026-05-07 17:20 | 43.42575 | 5.48284 | 7407 ft | 271 kts | 95° |
| 2026-05-07 17:21 | 43.42433 | 5.50903 | 8104 ft | 277 kts | 95° |
| 2026-05-07 17:21 | 43.42296 | 5.53533 | 8819 ft | 282 kts | 95° |
| 2026-05-07 17:21 | 43.42157 | 5.56246 | 9577 ft | 287 kts | 95° |
| 2026-05-07 17:21 | 43.42017 | 5.59011 | 10275 ft | 294 kts | 95° |
| 2026-05-07 17:22 | 43.41870 | 5.61924 | 10509 ft | 317 kts | 95° |
| 2026-05-07 17:22 | 43.41715 | 5.65013 | 11012 ft | 329 kts | 95° |
| 2026-05-07 17:22 | 43.41555 | 5.68177 | 11710 ft | 334 kts | 95° |
| 2026-05-07 17:22 | 43.41391 | 5.71387 | 12459 ft | 339 kts | 95° |
| 2026-05-07 17:23 | 43.41269 | 5.74641 | 13274 ft | 343 kts | 91° |
| 2026-05-07 17:23 | 43.41338 | 5.77892 | 14043 ft | 348 kts | 88° |
| 2026-05-07 17:23 | 43.41483 | 5.81243 | 14704 ft | 354 kts | 88° |
| 2026-05-07 17:23 | 43.41641 | 5.84643 | 15452 ft | 358 kts | 88° |
| 2026-05-07 17:24 | 43.41792 | 5.88080 | 16208 ft | 362 kts | 88° |
| 2026-05-07 17:24 | 43.41932 | 5.91560 | 16923 ft | 367 kts | 88° |
| 2026-05-07 17:24 | 43.42063 | 5.95082 | 17645 ft | 371 kts | 88° |
| 2026-05-07 17:24 | 43.42188 | 5.98654 | 18343 ft | 376 kts | 89° |
| 2026-05-07 17:25 | 43.42311 | 6.02278 | 18949 ft | 381 kts | 89° |
| 2026-05-07 17:25 | 43.42430 | 6.05894 | 19550 ft | 386 kts | 89° |
| 2026-05-07 17:25 | 43.42552 | 6.09603 | 20140 ft | 391 kts | 89° |
| 2026-05-07 17:25 | 43.42673 | 6.13361 | 20735 ft | 396 kts | 89° |
| 2026-05-07 17:26 | 43.42796 | 6.17157 | 21322 ft | 400 kts | 89° |
| 2026-05-07 17:26 | 43.42918 | 6.21007 | 21898 ft | 405 kts | 89° |
| 2026-05-07 17:26 | 43.43040 | 6.24900 | 22470 ft | 410 kts | 89° |
| 2026-05-07 17:26 | 43.43066 | 6.28838 | 23035 ft | 413 kts | 96° |
| 2026-05-07 17:27 | 43.42787 | 6.32780 | 23596 ft | 416 kts | 100° |
| 2026-05-07 17:27 | 43.42386 | 6.36685 | 24026 ft | 420 kts | 101° |
| 2026-05-07 17:27 | 43.41947 | 6.40682 | 24434 ft | 425 kts | 101° |
| 2026-05-07 17:27 | 43.41517 | 6.44727 | 24859 ft | 430 kts | 101° |
| 2026-05-07 17:28 | 43.41105 | 6.48823 | 25271 ft | 435 kts | 101° |
| 2026-05-07 17:28 | 43.40706 | 6.52970 | 25674 ft | 440 kts | 101° |
| 2026-05-07 17:28 | 43.40315 | 6.57161 | 26133 ft | 444 kts | 100° |
| 2026-05-07 17:28 | 43.39923 | 6.61394 | 26516 ft | 448 kts | 101° |
| 2026-05-07 17:29 | 43.39527 | 6.65667 | 26901 ft | 453 kts | 101° |
| 2026-05-07 17:29 | 43.39131 | 6.69930 | 27304 ft | 457 kts | 101° |
| 2026-05-07 17:29 | 43.38758 | 6.73918 | 27666 ft | 461 kts | 101° |
| 2026-05-07 17:29 | 43.38344 | 6.78315 | 28054 ft | 465 kts | 101° |
| 2026-05-07 17:30 | 43.37931 | 6.82741 | 28412 ft | 470 kts | 99° |
| 2026-05-07 17:30 | 43.37960 | 6.87274 | 28753 ft | 480 kts | 83° |
| 2026-05-07 17:30 | 43.38826 | 6.91708 | 29215 ft | 483 kts | 68° |
| 2026-05-07 17:30 | 43.40433 | 6.95755 | 29569 ft | 484 kts | 53° |
| 2026-05-07 17:31 | 43.42426 | 6.99510 | 29922 ft | 488 kts | 51° |
| 2026-05-07 17:31 | 43.44458 | 7.03232 | 30024 ft | 498 kts | 50° |
| 2026-05-07 17:31 | 43.46544 | 7.07070 | 30255 ft | 502 kts | 51° |
| 2026-05-07 17:31 | 43.48615 | 7.10943 | 30639 ft | 503 kts | 51° |
| 2026-05-07 17:32 | 43.50669 | 7.14846 | 31024 ft | 504 kts | 52° |
| 2026-05-07 17:32 | 43.52714 | 7.18773 | 31346 ft | 506 kts | 52° |
| 2026-05-07 17:32 | 43.54763 | 7.22726 | 31646 ft | 508 kts | 52° |
| 2026-05-07 17:32 | 43.56819 | 7.26699 | 31981 ft | 509 kts | 52° |
| 2026-05-07 17:33 | 43.58873 | 7.30668 | 32411 ft | 508 kts | 52° |
| 2026-05-07 17:33 | 43.60892 | 7.34567 | 32892 ft | 506 kts | 52° |
| 2026-05-07 17:33 | 43.62934 | 7.38517 | 33343 ft | 504 kts | 52° |
| 2026-05-07 17:33 | 43.64969 | 7.42453 | 33715 ft | 504 kts | 52° |
| 2026-05-07 17:34 | 43.67006 | 7.46396 | 34060 ft | 504 kts | 52° |
| 2026-05-07 17:34 | 43.69039 | 7.50340 | 34361 ft | 504 kts | 52° |
| 2026-05-07 17:34 | 43.71069 | 7.54282 | 34713 ft | 502 kts | 52° |
| 2026-05-07 17:34 | 43.73089 | 7.58211 | 35084 ft | 501 kts | 52° |
| 2026-05-07 17:35 | 43.75102 | 7.62131 | 35425 ft | 499 kts | 52° |
| 2026-05-07 17:35 | 43.77108 | 7.66050 | 35730 ft | 499 kts | 53° |
| 2026-05-07 17:35 | 43.79075 | 7.69921 | 36041 ft | 498 kts | 53° |
| 2026-05-07 17:35 | 43.81062 | 7.73840 | 36400 ft | 496 kts | 53° |
| 2026-05-07 17:36 | 43.83040 | 7.77738 | 36766 ft | 494 kts | 53° |
| 2026-05-07 17:36 | 43.85025 | 7.81624 | 37012 ft | 495 kts | 53° |
| 2026-05-07 17:36 | 43.89035 | 7.89455 | 37003 ft | 499 kts | 53° |
| 2026-05-07 17:37 | 43.93025 | 7.97276 | 36976 ft | 493 kts | 53° |
| 2026-05-07 17:37 | 43.96937 | 8.04975 | 36997 ft | 491 kts | 53° |
| 2026-05-07 17:38 | 44.00858 | 8.12712 | 36991 ft | 489 kts | 53° |
| 2026-05-07 17:38 | 44.04767 | 8.20445 | 36982 ft | 488 kts | 53° |
| 2026-05-07 17:39 | 44.08810 | 8.28002 | 36997 ft | 487 kts | 50° |
| 2026-05-07 17:39 | 44.13011 | 8.35324 | 37005 ft | 488 kts | 49° |
| 2026-05-07 17:40 | 44.17253 | 8.42706 | 36991 ft | 489 kts | 49° |
| 2026-05-07 17:40 | 44.21476 | 8.50149 | 36987 ft | 490 kts | 50° |
| 2026-05-07 17:41 | 44.25685 | 8.57631 | 36990 ft | 491 kts | 50° |
| 2026-05-07 17:41 | 44.29866 | 8.65093 | 37017 ft | 492 kts | 50° |
| 2026-05-07 17:42 | 44.34077 | 8.72626 | 36981 ft | 492 kts | 50° |
| 2026-05-07 17:42 | 44.38285 | 8.80171 | 36992 ft | 492 kts | 50° |
| 2026-05-07 17:43 | 44.42454 | 8.87664 | 36995 ft | 491 kts | 50° |
| 2026-05-07 17:43 | 44.46644 | 8.95214 | 37000 ft | 491 kts | 50° |
| 2026-05-07 17:44 | 44.50827 | 9.02771 | 36996 ft | 491 kts | 50° |
| 2026-05-07 17:44 | 44.55002 | 9.10334 | 36969 ft | 490 kts | 50° |
| 2026-05-07 17:45 | 44.59165 | 9.17896 | 36987 ft | 490 kts | 50° |
| 2026-05-07 17:45 | 44.63293 | 9.25413 | 37003 ft | 489 kts | 50° |
| 2026-05-07 17:46 | 44.67442 | 9.32987 | 36992 ft | 489 kts | 50° |
| 2026-05-07 17:46 | 44.71585 | 9.40571 | 36971 ft | 489 kts | 50° |
| 2026-05-07 17:47 | 44.75714 | 9.48150 | 36954 ft | 488 kts | 51° |
| 2026-05-07 17:47 | 44.79803 | 9.55675 | 36972 ft | 487 kts | 50° |
| 2026-05-07 17:48 | 44.83930 | 9.63289 | 36953 ft | 490 kts | 50° |
| 2026-05-07 17:48 | 44.88068 | 9.70944 | 36938 ft | 491 kts | 50° |
| 2026-05-07 17:49 | 44.92200 | 9.78612 | 36932 ft | 489 kts | 51° |
| 2026-05-07 17:49 | 44.96257 | 9.86161 | 36958 ft | 485 kts | 51° |
| 2026-05-07 17:50 | 45.00328 | 9.93751 | 36965 ft | 484 kts | 51° |
| 2026-05-07 17:50 | 45.04381 | 10.01329 | 36961 ft | 483 kts | 51° |
| 2026-05-07 17:51 | 45.08428 | 10.08916 | 36970 ft | 482 kts | 51° |
| 2026-05-07 17:51 | 45.12440 | 10.16458 | 36964 ft | 484 kts | 51° |
| 2026-05-07 17:52 | 45.16505 | 10.24117 | 36960 ft | 487 kts | 51° |
| 2026-05-07 17:52 | 45.20577 | 10.31814 | 36966 ft | 488 kts | 51° |
| 2026-05-07 17:53 | 45.24646 | 10.39526 | 36967 ft | 488 kts | 51° |
| 2026-05-07 17:53 | 45.28683 | 10.47197 | 36969 ft | 488 kts | 51° |
| 2026-05-07 17:54 | 45.32743 | 10.54933 | 36971 ft | 488 kts | 51° |
| 2026-05-07 17:54 | 45.36793 | 10.62670 | 36964 ft | 487 kts | 51° |
| 2026-05-07 17:55 | 45.40828 | 10.70402 | 36963 ft | 486 kts | 51° |
| 2026-05-07 17:55 | 45.44847 | 10.78122 | 36967 ft | 485 kts | 51° |
| 2026-05-07 17:56 | 45.48829 | 10.85791 | 36972 ft | 484 kts | 51° |
| 2026-05-07 17:56 | 45.52821 | 10.93502 | 36972 ft | 483 kts | 51° |
| 2026-05-07 17:57 | 45.56116 | 10.99881 | 36956 ft | 482 kts | 51° |
| 2026-05-07 17:57 | 45.60758 | 11.08893 | 36971 ft | 482 kts | 51° |
| 2026-05-07 17:58 | 45.64695 | 11.16560 | 37000 ft | 482 kts | 51° |
| 2026-05-07 17:58 | 45.68655 | 11.24290 | 36970 ft | 482 kts | 52° |
| 2026-05-07 17:59 | 45.72610 | 11.32035 | 36992 ft | 481 kts | 51° |
| 2026-05-07 17:59 | 45.76552 | 11.39773 | 37011 ft | 482 kts | 51° |
| 2026-05-07 18:00 | 45.80464 | 11.47474 | 37030 ft | 482 kts | 52° |
| 2026-05-07 18:00 | 45.84408 | 11.55258 | 37021 ft | 483 kts | 52° |
| 2026-05-07 18:01 | 45.88352 | 11.63064 | 37032 ft | 484 kts | 52° |
| 2026-05-07 18:01 | 45.92307 | 11.70914 | 37005 ft | 486 kts | 52° |
| 2026-05-07 18:02 | 45.98217 | 11.82687 | 37008 ft | 487 kts | 52° |
| 2026-05-07 18:03 | 46.02163 | 11.90575 | 37002 ft | 485 kts | 52° |
| 2026-05-07 18:03 | 46.06096 | 11.98459 | 36976 ft | 485 kts | 52° |
| 2026-05-07 18:04 | 46.09813 | 12.05931 | 36996 ft | 484 kts | 52° |
| 2026-05-07 18:04 | 46.13730 | 12.13824 | 37003 ft | 484 kts | 52° |
| 2026-05-07 18:05 | 46.17641 | 12.21728 | 37004 ft | 484 kts | 52° |
| 2026-05-07 18:05 | 46.21544 | 12.29639 | 36989 ft | 483 kts | 52° |
| 2026-05-07 18:06 | 46.25409 | 12.37494 | 36985 ft | 483 kts | 52° |
| 2026-05-07 18:06 | 46.29292 | 12.45410 | 37007 ft | 481 kts | 52° |
| 2026-05-07 18:07 | 46.33158 | 12.53311 | 36970 ft | 481 kts | 52° |
| 2026-05-07 18:07 | 46.36619 | 12.60406 | 37030 ft | 478 kts | 53° |
| 2026-05-07 18:08 | 46.40431 | 12.68238 | 37020 ft | 480 kts | 52° |
| 2026-05-07 18:08 | 46.44282 | 12.76171 | 37026 ft | 483 kts | 53° |
| 2026-05-07 18:09 | 46.48156 | 12.84176 | 37047 ft | 487 kts | 53° |
| 2026-05-07 18:09 | 46.52053 | 12.92253 | 37022 ft | 489 kts | 53° |
| 2026-05-07 18:10 | 46.55900 | 13.00255 | 36999 ft | 483 kts | 53° |
| 2026-05-07 18:10 | 46.59728 | 13.08235 | 37012 ft | 482 kts | 53° |
| 2026-05-07 18:11 | 46.63566 | 13.16256 | 37048 ft | 483 kts | 53° |
| 2026-05-07 18:11 | 46.67409 | 13.24312 | 37029 ft | 485 kts | 53° |
| 2026-05-07 18:12 | 46.70852 | 13.32705 | 37032 ft | 487 kts | 61° |
| 2026-05-07 18:12 | 46.73908 | 13.41533 | 37027 ft | 488 kts | 62° |
| 2026-05-07 18:13 | 46.76946 | 13.50368 | 37014 ft | 486 kts | 62° |
| 2026-05-07 18:13 | 46.80014 | 13.59129 | 36990 ft | 484 kts | 62° |
| 2026-05-07 18:13 | 46.81559 | 13.63515 | 36503 ft | 486 kts | 62° |
| 2026-05-07 18:14 | 46.83072 | 13.67808 | 36147 ft | 480 kts | 62° |
| 2026-05-07 18:14 | 46.84592 | 13.72125 | 35765 ft | 476 kts | 62° |
| 2026-05-07 18:14 | 46.86098 | 13.76412 | 35365 ft | 473 kts | 62° |
| 2026-05-07 18:14 | 46.87593 | 13.80678 | 34966 ft | 470 kts | 61° |
| 2026-05-07 18:15 | 46.89079 | 13.84925 | 34571 ft | 468 kts | 61° |
| 2026-05-07 18:15 | 46.90556 | 13.89157 | 34165 ft | 466 kts | 61° |
| 2026-05-07 18:15 | 46.92028 | 13.93379 | 33714 ft | 465 kts | 61° |
| 2026-05-07 18:15 | 46.93489 | 13.97575 | 33293 ft | 462 kts | 61° |
| 2026-05-07 18:16 | 46.94938 | 14.01745 | 32927 ft | 458 kts | 62° |
| 2026-05-07 18:16 | 46.96376 | 14.05890 | 32514 ft | 454 kts | 62° |
| 2026-05-07 18:16 | 46.97781 | 14.09947 | 32129 ft | 451 kts | 62° |
| 2026-05-07 18:16 | 46.99190 | 14.14022 | 31754 ft | 447 kts | 62° |
| 2026-05-07 18:17 | 47.00585 | 14.18061 | 31406 ft | 443 kts | 62° |
| 2026-05-07 18:17 | 47.01964 | 14.22062 | 31194 ft | 435 kts | 62° |
| 2026-05-07 18:17 | 47.03326 | 14.26018 | 30681 ft | 437 kts | 62° |
| 2026-05-07 18:17 | 47.04685 | 14.29972 | 30346 ft | 433 kts | 62° |
| 2026-05-07 18:18 | 47.06037 | 14.33912 | 29922 ft | 431 kts | 62° |
| 2026-05-07 18:18 | 47.07371 | 14.37807 | 29656 ft | 420 kts | 62° |
| 2026-05-07 18:18 | 47.08666 | 14.41591 | 29139 ft | 414 kts | 62° |
| 2026-05-07 18:18 | 47.09934 | 14.45299 | 28828 ft | 410 kts | 63° |
| 2026-05-07 18:19 | 47.11200 | 14.49021 | 28442 ft | 406 kts | 64° |
| 2026-05-07 18:19 | 47.12144 | 14.52891 | 28142 ft | 400 kts | 76° |
| 2026-05-07 18:19 | 47.12791 | 14.56832 | 27867 ft | 394 kts | 78° |
| 2026-05-07 18:19 | 47.13390 | 14.60727 | 27590 ft | 389 kts | 78° |
| 2026-05-07 18:20 | 47.13998 | 14.64579 | 27323 ft | 385 kts | 77° |
| 2026-05-07 18:20 | 47.14621 | 14.68377 | 27055 ft | 380 kts | 77° |
| 2026-05-07 18:20 | 47.15256 | 14.72132 | 26728 ft | 377 kts | 76° |
| 2026-05-07 18:20 | 47.15890 | 14.75859 | 26380 ft | 375 kts | 76° |
| 2026-05-07 18:21 | 47.16520 | 14.79558 | 26063 ft | 372 kts | 76° |
| 2026-05-07 18:21 | 47.17135 | 14.83173 | 25789 ft | 368 kts | 76° |
| 2026-05-07 18:21 | 47.17753 | 14.86807 | 25454 ft | 366 kts | 76° |
| 2026-05-07 18:21 | 47.18367 | 14.90425 | 25120 ft | 364 kts | 76° |
| 2026-05-07 18:22 | 47.18976 | 14.94021 | 24778 ft | 362 kts | 76° |
| 2026-05-07 18:22 | 47.19377 | 14.96396 | 24551 ft | 361 kts | 76° |
| 2026-05-07 18:22 | 47.20182 | 15.01168 | 24092 ft | 358 kts | 76° |
| 2026-05-07 18:22 | 47.20780 | 15.04720 | 23737 ft | 357 kts | 77° |
| 2026-05-07 18:23 | 47.21373 | 15.08256 | 23370 ft | 356 kts | 77° |
| 2026-05-07 18:23 | 47.21963 | 15.11779 | 22984 ft | 354 kts | 77° |
| 2026-05-07 18:23 | 47.22541 | 15.15237 | 22635 ft | 352 kts | 77° |
| 2026-05-07 18:23 | 47.23122 | 15.18720 | 22299 ft | 349 kts | 77° |
| 2026-05-07 18:24 | 47.23699 | 15.22185 | 21942 ft | 347 kts | 77° |
| 2026-05-07 18:24 | 47.24339 | 15.25603 | 21630 ft | 346 kts | 69° |
| 2026-05-07 18:24 | 47.25478 | 15.28705 | 21372 ft | 345 kts | 56° |
| 2026-05-07 18:24 | 47.26984 | 15.31443 | 21114 ft | 343 kts | 49° |
| 2026-05-07 18:25 | 47.28566 | 15.34065 | 20868 ft | 342 kts | 48° |
| 2026-05-07 18:25 | 47.30162 | 15.36681 | 20604 ft | 344 kts | 48° |
| 2026-05-07 18:25 | 47.31767 | 15.39315 | 20372 ft | 346 kts | 48° |
| 2026-05-07 18:25 | 47.33369 | 15.41956 | 20124 ft | 345 kts | 48° |
| 2026-05-07 18:26 | 47.34940 | 15.44558 | 19871 ft | 343 kts | 48° |
| 2026-05-07 18:26 | 47.36519 | 15.47184 | 19617 ft | 341 kts | 48° |
| 2026-05-07 18:26 | 47.38085 | 15.49796 | 19368 ft | 339 kts | 48° |
| 2026-05-07 18:26 | 47.39642 | 15.52401 | 19139 ft | 338 kts | 48° |
| 2026-05-07 18:27 | 47.41191 | 15.54995 | 18901 ft | 337 kts | 48° |
| 2026-05-07 18:27 | 47.42738 | 15.57591 | 18655 ft | 336 kts | 48° |
| 2026-05-07 18:27 | 47.44285 | 15.60189 | 18418 ft | 338 kts | 49° |
| 2026-05-07 18:27 | 47.45312 | 15.61915 | 18259 ft | 338 kts | 49° |
| 2026-05-07 18:28 | 47.47383 | 15.65401 | 17894 ft | 337 kts | 49° |
| 2026-05-07 18:28 | 47.48927 | 15.68003 | 17621 ft | 336 kts | 48° |
| 2026-05-07 18:28 | 47.50447 | 15.70565 | 17369 ft | 335 kts | 48° |
| 2026-05-07 18:28 | 47.51981 | 15.73155 | 17104 ft | 334 kts | 49° |
| 2026-05-07 18:29 | 47.53509 | 15.75739 | 16839 ft | 334 kts | 48° |
| 2026-05-07 18:29 | 47.55036 | 15.78321 | 16578 ft | 333 kts | 48° |
| 2026-05-07 18:29 | 47.56556 | 15.80894 | 16322 ft | 331 kts | 49° |
| 2026-05-07 18:29 | 47.58068 | 15.83455 | 16064 ft | 329 kts | 49° |
| 2026-05-07 18:30 | 47.59571 | 15.86006 | 15816 ft | 327 kts | 49° |
| 2026-05-07 18:30 | 47.61060 | 15.88535 | 15560 ft | 323 kts | 49° |
| 2026-05-07 18:30 | 47.62530 | 15.91034 | 15303 ft | 320 kts | 49° |
| 2026-05-07 18:30 | 47.63988 | 15.93513 | 15053 ft | 318 kts | 49° |
| 2026-05-07 18:31 | 47.65419 | 15.95950 | 14815 ft | 317 kts | 49° |
| 2026-05-07 18:31 | 47.66864 | 15.98412 | 14573 ft | 316 kts | 48° |
| 2026-05-07 18:31 | 47.68304 | 16.00869 | 14328 ft | 315 kts | 48° |
| 2026-05-07 18:31 | 47.69740 | 16.03320 | 14088 ft | 314 kts | 48° |
| 2026-05-07 18:32 | 47.71171 | 16.05765 | 13848 ft | 313 kts | 48° |
| 2026-05-07 18:32 | 47.72598 | 16.08206 | 13584 ft | 312 kts | 48° |
| 2026-05-07 18:32 | 47.74020 | 16.10641 | 13320 ft | 311 kts | 48° |
| 2026-05-07 18:32 | 47.75436 | 16.13068 | 13053 ft | 310 kts | 48° |
| 2026-05-07 18:33 | 47.76842 | 16.15479 | 12787 ft | 307 kts | 48° |
| 2026-05-07 18:33 | 47.78233 | 16.17868 | 12518 ft | 305 kts | 48° |
| 2026-05-07 18:33 | 47.79598 | 16.20214 | 12274 ft | 303 kts | 48° |
| 2026-05-07 18:33 | 47.81065 | 16.22440 | 12013 ft | 300 kts | 38° |
| 2026-05-07 18:34 | 47.82731 | 16.24291 | 11765 ft | 298 kts | 33° |
| 2026-05-07 18:34 | 47.84432 | 16.26029 | 11514 ft | 295 kts | 32° |
| 2026-05-07 18:34 | 47.86121 | 16.27742 | 11262 ft | 293 kts | 32° |
| 2026-05-07 18:34 | 47.87792 | 16.29456 | 11009 ft | 291 kts | 33° |
| 2026-05-07 18:35 | 47.89450 | 16.31178 | 10763 ft | 290 kts | 33° |
| 2026-05-07 18:35 | 47.91094 | 16.32904 | 10527 ft | 288 kts | 33° |
| 2026-05-07 18:35 | 47.92718 | 16.34622 | 10281 ft | 285 kts | 34° |
| 2026-05-07 18:35 | 47.94325 | 16.36331 | 10036 ft | 282 kts | 34° |
| 2026-05-07 18:36 | 47.95911 | 16.38023 | 9781 ft | 279 kts | 34° |
| 2026-05-07 18:36 | 47.97459 | 16.39678 | 9515 ft | 276 kts | 34° |
| 2026-05-07 18:36 | 47.99014 | 16.41344 | 9248 ft | 274 kts | 34° |
| 2026-05-07 18:36 | 48.00555 | 16.42998 | 8987 ft | 271 kts | 34° |
| 2026-05-07 18:37 | 48.02078 | 16.44634 | 8731 ft | 269 kts | 34° |
| 2026-05-07 18:37 | 48.03597 | 16.46267 | 8477 ft | 269 kts | 34° |
| 2026-05-07 18:37 | 48.05108 | 16.47893 | 8222 ft | 267 kts | 34° |
| 2026-05-07 18:37 | 48.06609 | 16.49510 | 7972 ft | 265 kts | 34° |
| 2026-05-07 18:38 | 48.08100 | 16.51118 | 7718 ft | 263 kts | 34° |
| 2026-05-07 18:38 | 48.09582 | 16.52717 | 7468 ft | 262 kts | 34° |
| 2026-05-07 18:38 | 48.11058 | 16.54310 | 7214 ft | 261 kts | 34° |
| 2026-05-07 18:38 | 48.12507 | 16.55875 | 6978 ft | 260 kts | 35° |
| 2026-05-07 18:39 | 48.13970 | 16.57458 | 6733 ft | 259 kts | 35° |
| 2026-05-07 18:39 | 48.15417 | 16.59023 | 6490 ft | 259 kts | 35° |
| 2026-05-07 18:39 | 48.16877 | 16.60604 | 6242 ft | 259 kts | 35° |
| 2026-05-07 18:39 | 48.18335 | 16.62184 | 6068 ft | 258 kts | 35° |
| 2026-05-07 18:40 | 48.19800 | 16.63772 | 5995 ft | 259 kts | 35° |
| 2026-05-07 18:40 | 48.21266 | 16.65318 | 5951 ft | 258 kts | 28° |
| 2026-05-07 18:40 | 48.22989 | 16.65983 | 5721 ft | 260 kts | 357° |
| 2026-05-07 18:40 | 48.24763 | 16.65494 | 5559 ft | 260 kts | 344° |
| 2026-05-07 18:41 | 48.26494 | 16.64742 | 5359 ft | 258 kts | 343° |
| 2026-05-07 18:41 | 48.28166 | 16.63927 | 5140 ft | 255 kts | 334° |
| 2026-05-07 18:41 | 48.29508 | 16.62274 | 4921 ft | 251 kts | 304° |
| 2026-05-07 18:41 | 48.30104 | 16.59862 | 4720 ft | 251 kts | 275° |
| 2026-05-07 18:42 | 48.29899 | 16.57278 | 4552 ft | 250 kts | 257° |
| 2026-05-07 18:42 | 48.29447 | 16.54749 | 4341 ft | 251 kts | 251° |
| 2026-05-07 18:42 | 48.28518 | 16.52536 | 4125 ft | 255 kts | 223° |
| 2026-05-07 18:42 | 48.26962 | 16.51316 | 3904 ft | 257 kts | 190° |
| 2026-05-07 18:43 | 48.25207 | 16.51623 | 3622 ft | 258 kts | 158° |
| 2026-05-07 18:43 | 48.23583 | 16.52747 | 3352 ft | 257 kts | 158° |
| 2026-05-07 18:43 | 48.21892 | 16.53632 | 3053 ft | 257 kts | 166° |
| 2026-05-07 18:43 | 48.20189 | 16.54154 | 3014 ft | 251 kts | 173° |
| 2026-05-07 18:44 | 48.18455 | 16.54337 | 2924 ft | 252 kts | 181° |
| 2026-05-07 18:44 | 48.16690 | 16.54181 | 2625 ft | 254 kts | 189° |
| 2026-05-07 18:44 | 48.14982 | 16.53677 | 2540 ft | 247 kts | 196° |
| 2026-05-07 18:44 | 48.13373 | 16.52849 | 2522 ft | 243 kts | 204° |
| 2026-05-07 18:45 | 48.11828 | 16.51840 | 2509 ft | 242 kts | 197° |
| 2026-05-07 18:45 | 48.10161 | 16.51803 | 2567 ft | 246 kts | 164° |
| 2026-05-07 18:45 | 48.08671 | 16.53099 | 2729 ft | 254 kts | 133° |
| 2026-05-07 18:45 | 48.07787 | 16.55365 | 2861 ft | 254 kts | 103° |
| 2026-05-07 18:46 | 48.07740 | 16.57906 | 2972 ft | 247 kts | 79° |
| 2026-05-07 18:46 | 48.08098 | 16.60441 | 3022 ft | 252 kts | 76° |
| 2026-05-07 18:46 | 48.08539 | 16.62987 | 3018 ft | 253 kts | 67° |
| 2026-05-07 18:46 | 48.09544 | 16.65090 | 3023 ft | 252 kts | 37° |
| 2026-05-07 18:47 | 48.11133 | 16.66183 | 3032 ft | 254 kts | 11° |
| 2026-05-07 18:47 | 48.12874 | 16.66580 | 3025 ft | 253 kts | 6° |
| 2026-05-07 18:47 | 48.14616 | 16.66895 | 3012 ft | 252 kts | 5° |
| 2026-05-07 18:47 | 48.16352 | 16.67201 | 3015 ft | 251 kts | 5° |
| 2026-05-07 18:48 | 48.18085 | 16.67503 | 3022 ft | 251 kts | 5° |
| 2026-05-07 18:48 | 48.19239 | 16.67621 | 3015 ft | 251 kts | 355° |
| 2026-05-07 18:48 | 48.20959 | 16.67191 | 3029 ft | 250 kts | 346° |
| 2026-05-07 18:48 | 48.22656 | 16.66609 | 3021 ft | 251 kts | 345° |
| 2026-05-07 18:49 | 48.24355 | 16.66014 | 3018 ft | 251 kts | 345° |
| 2026-05-07 18:49 | 48.26607 | 16.65212 | 3011 ft | 251 kts | 345° |
| 2026-05-07 18:49 | 48.28297 | 16.64601 | 3014 ft | 249 kts | 345° |
| 2026-05-07 18:49 | 48.29983 | 16.63989 | 3019 ft | 249 kts | 344° |
| 2026-05-07 18:50 | 48.31059 | 16.63415 | 3016 ft | 246 kts | 333° |
| 2026-05-07 18:50 | 48.32345 | 16.61886 | 3008 ft | 230 kts | 302° |
| 2026-05-07 18:50 | 48.32839 | 16.59735 | 3005 ft | 213 kts | 270° |
| 2026-05-07 18:50 | 48.32719 | 16.57597 | 3000 ft | 199 kts | 265° |
| 2026-05-07 18:51 | 48.32350 | 16.55030 | 3001 ft | 189 kts | 236° |
| 2026-05-07 18:51 | 48.31319 | 16.53810 | 3028 ft | 197 kts | 201° |
| 2026-05-07 18:51 | 48.29989 | 16.53234 | 3049 ft | 200 kts | 196° |
| 2026-05-07 18:51 | 48.29076 | 16.52896 | 3034 ft | 200 kts | 195° |
| 2026-05-07 18:52 | 48.27754 | 16.52415 | 3032 ft | 197 kts | 195° |
| 2026-05-07 18:52 | 48.26446 | 16.51959 | 3014 ft | 191 kts | 189° |
| 2026-05-07 18:52 | 48.25157 | 16.52217 | 3038 ft | 188 kts | 162° |
| 2026-05-07 18:52 | 48.23921 | 16.52776 | 2985 ft | 182 kts | 166° |
| 2026-05-07 18:53 | 48.22734 | 16.53263 | 2817 ft | 171 kts | 166° |
| 2026-05-07 18:53 | 48.21596 | 16.53739 | 2593 ft | 167 kts | 166° |
| 2026-05-07 18:53 | 48.20515 | 16.54198 | 2368 ft | 155 kts | 166° |
| 2026-05-07 18:53 | 48.19510 | 16.54624 | 2171 ft | 147 kts | 166° |
| 2026-05-07 18:54 | 48.18534 | 16.55037 | 1981 ft | 146 kts | 166° |
| 2026-05-07 18:54 | 48.17559 | 16.55450 | 1780 ft | 145 kts | 166° |
| 2026-05-07 18:54 | 48.16589 | 16.55862 | 1596 ft | 145 kts | 166° |
| 2026-05-07 18:54 | 48.15625 | 16.56270 | 1390 ft | 143 kts | 166° |
| 2026-05-07 18:55 | 48.14667 | 16.56676 | 1201 ft | 142 kts | 167° |
| 2026-05-07 18:55 | 48.13727 | 16.57076 | 1005 ft | 143 kts | 168° |
| 2026-05-07 18:55 | 48.12776 | 16.57479 | 812 ft | 141 kts | 169° |
| 2026-05-07 18:55 | 48.11833 | 16.57878 | 630 ft | 140 kts | 169° |
| 2026-05-07 18:56 | 48.11017 | 16.58217 | 617 ft | 86 kts | 172° |
| 2026-05-07 18:56 | 48.10491 | 16.58440 | 620 ft | 56 kts | 165° |
| 2026-05-07 18:56 | 48.10233 | 16.58441 | 612 ft | 25 kts | 192° |
| 2026-05-07 18:56 | 48.10150 | 16.58399 | 613 ft | 10 kts | 220° |
| 2026-05-07 18:57 | 48.10157 | 16.58316 | 612 ft | 9 kts | 325° |
| 2026-05-07 18:57 | 48.10217 | 16.58283 | 614 ft | 9 kts | 342° |
| 2026-05-07 18:57 | 48.10279 | 16.58255 | 616 ft | 9 kts | 343° |
| 2026-05-07 18:57 | 48.10338 | 16.58229 | 619 ft | 9 kts | 344° |
| 2026-05-07 18:58 | 48.10418 | 16.58194 | 613 ft | 17 kts | 343° |
| 2026-05-07 18:58 | 48.10558 | 16.58136 | 611 ft | 23 kts | 344° |
| 2026-05-07 18:58 | 48.10697 | 16.58081 | 620 ft | 19 kts | 344° |
| 2026-05-07 18:58 | 48.10825 | 16.58025 | 618 ft | 19 kts | 343° |
| 2026-05-07 18:59 | 48.10949 | 16.57973 | 616 ft | 18 kts | 345° |
| 2026-05-07 18:59 | 48.11056 | 16.57927 | 617 ft | 11 kts | 342° |
| 2026-05-07 18:59 | 48.11110 | 16.57857 | 620 ft | 10 kts | 303° |
| 2026-05-07 18:59 | 48.11142 | 16.57762 | 620 ft | 10 kts | 295° |
| 2026-05-07 19:00 | 48.11172 | 16.57669 | 615 ft | 10 kts | 295° |
| 2026-05-07 19:00 | 48.11203 | 16.57573 | 612 ft | 11 kts | 296° |
| 2026-05-07 19:00 | 48.11243 | 16.57452 | 618 ft | 15 kts | 295° |
| 2026-05-07 19:00 | 48.11291 | 16.57302 | 620 ft | 17 kts | 295° |
| 2026-05-07 19:01 | 48.11342 | 16.57143 | 610 ft | 17 kts | 295° |
| 2026-05-07 19:01 | 48.11390 | 16.56989 | 616 ft | 16 kts | 297° |